sensor_id;sensor_type;location;lat;lon;timestamp;P1;durP1;ratioP1;P2;durP2;ratioP2
27305;SDS011;14792;50.886;6.468;2023-04-15T00:00:00;17.98;;;3.75;;
27305;SDS011;14792;50.886;6.468;2023-04-15T00:03:01;23.07;;;4.47;;
27305;SDS011;14792;50.886;6.468;2023-04-15T00:06:03;17.02;;;3.60;;
27305;SDS011;14792;50.886;6.468;2023-04-15T00:09:05;19.02;;;3.35;;
27305;SDS011;14792;50.886;6.468;2023-04-15T00:12:06;11.57;;;3.52;;
27305;SDS011;14792;50.886;6.468;2023-04-15T00:15:08;11.93;;;3.37;;
27305;SDS011;14792;50.886;6.468;2023-04-15T00:18:09;9.55;;;3.40;;
27305;SDS011;14792;50.886;6.468;2023-04-15T00:21:11;7.95;;;3.20;;
27305;SDS011;14792;50.886;6.468;2023-04-15T00:24:13;12.18;;;3.50;;
27305;SDS011;14792;50.886;6.468;2023-04-15T00:27:14;7.85;;;3.30;;
27305;SDS011;14792;50.886;6.468;2023-04-15T00:30:16;10.78;;;3.80;;
27305;SDS011;14792;50.886;6.468;2023-04-15T00:33:17;8.83;;;3.27;;
27305;SDS011;14792;50.886;6.468;2023-04-15T00:36:19;10.53;;;4.10;;
27305;SDS011;14792;50.886;6.468;2023-04-15T00:39:21;8.43;;;3.80;;
27305;SDS011;14792;50.886;6.468;2023-04-15T00:42:22;10.60;;;3.50;;
27305;SDS011;14792;50.886;6.468;2023-04-15T00:45:24;8.83;;;3.47;;
27305;SDS011;14792;50.886;6.468;2023-04-15T00:48:26;12.82;;;3.80;;
27305;SDS011;14792;50.886;6.468;2023-04-15T00:51:27;11.00;;;4.10;;
27305;SDS011;14792;50.886;6.468;2023-04-15T00:54:29;10.43;;;3.83;;
27305;SDS011;14792;50.886;6.468;2023-04-15T00:57:32;9.28;;;3.12;;
27305;SDS011;14792;50.886;6.468;2023-04-15T01:00:33;7.87;;;3.70;;
27305;SDS011;14792;50.886;6.468;2023-04-15T01:03:35;9.65;;;3.20;;
27305;SDS011;14792;50.886;6.468;2023-04-15T01:06:37;9.58;;;3.80;;
27305;SDS011;14792;50.886;6.468;2023-04-15T01:09:38;11.40;;;3.95;;
27305;SDS011;14792;50.886;6.468;2023-04-15T01:12:40;10.95;;;4.75;;
27305;SDS011;14792;50.886;6.468;2023-04-15T01:15:41;13.85;;;4.58;;
27305;SDS011;14792;50.886;6.468;2023-04-15T01:18:43;12.68;;;4.53;;
27305;SDS011;14792;50.886;6.468;2023-04-15T01:21:45;7.55;;;3.87;;
27305;SDS011;14792;50.886;6.468;2023-04-15T01:24:50;17.02;;;3.95;;
27305;SDS011;14792;50.886;6.468;2023-04-15T01:27:48;14.90;;;4.08;;
27305;SDS011;14792;50.886;6.468;2023-04-15T01:31:13;35.80;;;4.60;;
27305;SDS011;14792;50.886;6.468;2023-04-15T01:34:05;31.77;;;5.72;;
27305;SDS011;14792;50.886;6.468;2023-04-15T01:37:07;34.48;;;5.62;;
27305;SDS011;14792;50.886;6.468;2023-04-15T01:40:09;36.08;;;4.87;;
27305;SDS011;14792;50.886;6.468;2023-04-15T01:43:10;29.30;;;5.22;;
27305;SDS011;14792;50.886;6.468;2023-04-15T01:46:12;26.23;;;4.95;;
27305;SDS011;14792;50.886;6.468;2023-04-15T01:49:13;28.42;;;5.15;;
27305;SDS011;14792;50.886;6.468;2023-04-15T01:52:15;23.22;;;4.97;;
27305;SDS011;14792;50.886;6.468;2023-04-15T01:55:17;24.43;;;4.45;;
27305;SDS011;14792;50.886;6.468;2023-04-15T01:58:18;24.35;;;5.10;;
27305;SDS011;14792;50.886;6.468;2023-04-15T02:01:20;26.20;;;4.37;;
27305;SDS011;14792;50.886;6.468;2023-04-15T02:04:22;28.25;;;4.85;;
27305;SDS011;14792;50.886;6.468;2023-04-15T02:07:23;25.40;;;5.37;;
27305;SDS011;14792;50.886;6.468;2023-04-15T02:10:25;28.07;;;5.17;;
27305;SDS011;14792;50.886;6.468;2023-04-15T02:13:26;24.18;;;4.95;;
27305;SDS011;14792;50.886;6.468;2023-04-15T02:16:28;39.60;;;4.58;;
27305;SDS011;14792;50.886;6.468;2023-04-15T02:19:30;17.05;;;4.00;;
27305;SDS011;14792;50.886;6.468;2023-04-15T02:25:33;19.07;;;4.30;;
27305;SDS011;14792;50.886;6.468;2023-04-15T02:28:35;26.02;;;4.75;;
27305;SDS011;14792;50.886;6.468;2023-04-15T02:31:36;17.57;;;4.10;;
27305;SDS011;14792;50.886;6.468;2023-04-15T02:34:43;21.65;;;4.28;;
27305;SDS011;14792;50.886;6.468;2023-04-15T02:37:45;20.90;;;5.00;;
27305;SDS011;14792;50.886;6.468;2023-04-15T02:40:47;28.87;;;4.58;;
27305;SDS011;14792;50.886;6.468;2023-04-15T02:43:48;18.77;;;4.62;;
27305;SDS011;14792;50.886;6.468;2023-04-15T02:46:50;25.75;;;4.50;;
27305;SDS011;14792;50.886;6.468;2023-04-15T02:49:52;32.53;;;5.08;;
27305;SDS011;14792;50.886;6.468;2023-04-15T02:52:53;32.33;;;4.78;;
27305;SDS011;14792;50.886;6.468;2023-04-15T02:55:55;19.00;;;4.85;;
27305;SDS011;14792;50.886;6.468;2023-04-15T02:58:57;28.32;;;4.37;;
27305;SDS011;14792;50.886;6.468;2023-04-15T03:01:58;14.75;;;3.80;;
27305;SDS011;14792;50.886;6.468;2023-04-15T03:05:00;28.02;;;4.60;;
27305;SDS011;14792;50.886;6.468;2023-04-15T03:08:02;21.42;;;4.58;;
27305;SDS011;14792;50.886;6.468;2023-04-15T03:11:03;25.12;;;5.08;;
27305;SDS011;14792;50.886;6.468;2023-04-15T03:14:05;28.02;;;5.35;;
27305;SDS011;14792;50.886;6.468;2023-04-15T03:17:06;20.88;;;5.12;;
27305;SDS011;14792;50.886;6.468;2023-04-15T03:20:08;23.15;;;4.33;;
27305;SDS011;14792;50.886;6.468;2023-04-15T03:23:10;24.37;;;5.28;;
27305;SDS011;14792;50.886;6.468;2023-04-15T03:26:22;23.90;;;5.00;;
27305;SDS011;14792;50.886;6.468;2023-04-15T03:29:13;34.83;;;6.10;;
27305;SDS011;14792;50.886;6.468;2023-04-15T03:32:14;27.45;;;5.17;;
27305;SDS011;14792;50.886;6.468;2023-04-15T03:35:16;35.78;;;5.53;;
27305;SDS011;14792;50.886;6.468;2023-04-15T03:38:18;39.27;;;6.58;;
27305;SDS011;14792;50.886;6.468;2023-04-15T03:41:19;28.35;;;4.65;;
27305;SDS011;14792;50.886;6.468;2023-04-15T03:44:21;21.45;;;5.33;;
27305;SDS011;14792;50.886;6.468;2023-04-15T03:47:22;32.28;;;5.55;;
27305;SDS011;14792;50.886;6.468;2023-04-15T03:50:24;30.95;;;5.95;;
27305;SDS011;14792;50.886;6.468;2023-04-15T03:53:25;24.65;;;5.60;;
27305;SDS011;14792;50.886;6.468;2023-04-15T03:56:27;25.10;;;5.25;;
27305;SDS011;14792;50.886;6.468;2023-04-15T03:59:29;33.92;;;5.10;;
27305;SDS011;14792;50.886;6.468;2023-04-15T04:02:30;36.65;;;5.03;;
27305;SDS011;14792;50.886;6.468;2023-04-15T04:05:32;27.20;;;5.20;;
27305;SDS011;14792;50.886;6.468;2023-04-15T04:08:33;26.37;;;5.40;;
27305;SDS011;14792;50.886;6.468;2023-04-15T04:11:35;30.57;;;5.35;;
27305;SDS011;14792;50.886;6.468;2023-04-15T04:14:37;27.62;;;5.40;;
27305;SDS011;14792;50.886;6.468;2023-04-15T04:17:38;27.70;;;5.75;;
27305;SDS011;14792;50.886;6.468;2023-04-15T04:20:40;32.93;;;5.65;;
27305;SDS011;14792;50.886;6.468;2023-04-15T04:23:41;31.95;;;5.28;;
27305;SDS011;14792;50.886;6.468;2023-04-15T04:26:43;26.95;;;7.12;;
27305;SDS011;14792;50.886;6.468;2023-04-15T04:29:45;32.55;;;7.03;;
27305;SDS011;14792;50.886;6.468;2023-04-15T04:32:46;34.90;;;6.92;;
27305;SDS011;14792;50.886;6.468;2023-04-15T04:35:48;53.38;;;8.23;;
27305;SDS011;14792;50.886;6.468;2023-04-15T04:38:49;33.65;;;6.83;;
27305;SDS011;14792;50.886;6.468;2023-04-15T04:41:51;32.40;;;6.65;;
27305;SDS011;14792;50.886;6.468;2023-04-15T04:44:53;31.30;;;5.72;;
27305;SDS011;14792;50.886;6.468;2023-04-15T04:47:55;25.52;;;6.80;;
27305;SDS011;14792;50.886;6.468;2023-04-15T04:54:17;35.10;;;7.25;;
27305;SDS011;14792;50.886;6.468;2023-04-15T04:57:19;34.75;;;6.20;;
27305;SDS011;14792;50.886;6.468;2023-04-15T05:00:21;28.85;;;6.20;;
27305;SDS011;14792;50.886;6.468;2023-04-15T05:03:22;22.15;;;6.03;;
27305;SDS011;14792;50.886;6.468;2023-04-15T05:06:24;28.83;;;5.70;;
27305;SDS011;14792;50.886;6.468;2023-04-15T05:09:25;17.02;;;5.20;;
27305;SDS011;14792;50.886;6.468;2023-04-15T05:12:27;29.63;;;5.28;;
27305;SDS011;14792;50.886;6.468;2023-04-15T05:23:28;16.70;;;5.40;;
27305;SDS011;14792;50.886;6.468;2023-04-15T05:29:53;19.23;;;5.45;;
27305;SDS011;14792;50.886;6.468;2023-04-15T05:32:54;16.77;;;5.28;;
27305;SDS011;14792;50.886;6.468;2023-04-15T05:35:56;17.27;;;5.78;;
27305;SDS011;14792;50.886;6.468;2023-04-15T05:38:57;23.47;;;5.03;;
27305;SDS011;14792;50.886;6.468;2023-04-15T05:41:59;16.62;;;5.47;;
27305;SDS011;14792;50.886;6.468;2023-04-15T05:45:00;17.00;;;5.20;;
27305;SDS011;14792;50.886;6.468;2023-04-15T05:48:02;12.82;;;5.12;;
27305;SDS011;14792;50.886;6.468;2023-04-15T05:51:04;15.15;;;5.37;;
27305;SDS011;14792;50.886;6.468;2023-04-15T05:54:05;15.85;;;5.40;;
27305;SDS011;14792;50.886;6.468;2023-04-15T05:57:07;13.80;;;5.85;;
27305;SDS011;14792;50.886;6.468;2023-04-15T06:00:08;22.10;;;8.58;;
27305;SDS011;14792;50.886;6.468;2023-04-15T06:03:10;18.05;;;5.62;;
27305;SDS011;14792;50.886;6.468;2023-04-15T06:06:12;12.37;;;5.08;;
27305;SDS011;14792;50.886;6.468;2023-04-15T06:09:13;12.35;;;5.00;;
27305;SDS011;14792;50.886;6.468;2023-04-15T06:12:15;10.95;;;5.28;;
27305;SDS011;14792;50.886;6.468;2023-04-15T06:15:16;15.18;;;5.33;;
27305;SDS011;14792;50.886;6.468;2023-04-15T06:18:18;12.85;;;5.28;;
27305;SDS011;14792;50.886;6.468;2023-04-15T06:21:20;15.23;;;5.30;;
27305;SDS011;14792;50.886;6.468;2023-04-15T06:24:21;14.60;;;5.75;;
27305;SDS011;14792;50.886;6.468;2023-04-15T06:27:23;17.73;;;5.50;;
27305;SDS011;14792;50.886;6.468;2023-04-15T06:30:24;15.30;;;6.00;;
27305;SDS011;14792;50.886;6.468;2023-04-15T06:33:26;14.58;;;5.80;;
27305;SDS011;14792;50.886;6.468;2023-04-15T06:36:28;12.60;;;5.92;;
27305;SDS011;14792;50.886;6.468;2023-04-15T06:39:29;21.90;;;6.55;;
27305;SDS011;14792;50.886;6.468;2023-04-15T06:42:32;18.67;;;5.75;;
27305;SDS011;14792;50.886;6.468;2023-04-15T06:45:34;22.45;;;5.65;;
27305;SDS011;14792;50.886;6.468;2023-04-15T06:48:35;30.57;;;6.70;;
27305;SDS011;14792;50.886;6.468;2023-04-15T06:51:37;20.95;;;6.22;;
27305;SDS011;14792;50.886;6.468;2023-04-15T06:54:39;28.70;;;5.95;;
27305;SDS011;14792;50.886;6.468;2023-04-15T06:57:40;22.02;;;6.90;;
27305;SDS011;14792;50.886;6.468;2023-04-15T07:00:42;18.25;;;6.30;;
27305;SDS011;14792;50.886;6.468;2023-04-15T07:03:43;15.23;;;5.75;;
27305;SDS011;14792;50.886;6.468;2023-04-15T07:06:45;17.45;;;6.47;;
27305;SDS011;14792;50.886;6.468;2023-04-15T07:09:46;16.87;;;6.12;;
27305;SDS011;14792;50.886;6.468;2023-04-15T07:12:48;22.62;;;6.00;;
27305;SDS011;14792;50.886;6.468;2023-04-15T07:15:52;14.33;;;5.85;;
27305;SDS011;14792;50.886;6.468;2023-04-15T07:18:54;16.70;;;5.70;;
27305;SDS011;14792;50.886;6.468;2023-04-15T07:21:56;22.93;;;6.28;;
27305;SDS011;14792;50.886;6.468;2023-04-15T07:24:57;14.85;;;6.08;;
27305;SDS011;14792;50.886;6.468;2023-04-15T07:27:59;14.47;;;6.50;;
27305;SDS011;14792;50.886;6.468;2023-04-15T07:31:00;16.85;;;5.92;;
27305;SDS011;14792;50.886;6.468;2023-04-15T07:34:02;10.60;;;6.28;;
27305;SDS011;14792;50.886;6.468;2023-04-15T07:37:03;18.70;;;7.30;;
27305;SDS011;14792;50.886;6.468;2023-04-15T07:40:05;17.77;;;6.83;;
27305;SDS011;14792;50.886;6.468;2023-04-15T07:43:07;20.88;;;6.12;;
27305;SDS011;14792;50.886;6.468;2023-04-15T07:46:08;16.80;;;5.90;;
27305;SDS011;14792;50.886;6.468;2023-04-15T07:49:10;16.82;;;6.47;;
27305;SDS011;14792;50.886;6.468;2023-04-15T07:52:12;19.60;;;6.37;;
27305;SDS011;14792;50.886;6.468;2023-04-15T07:55:13;17.73;;;6.80;;
27305;SDS011;14792;50.886;6.468;2023-04-15T07:58:15;20.72;;;6.60;;
27305;SDS011;14792;50.886;6.468;2023-04-15T08:01:16;16.85;;;7.78;;
27305;SDS011;14792;50.886;6.468;2023-04-15T08:04:18;22.70;;;7.25;;
27305;SDS011;14792;50.886;6.468;2023-04-15T08:07:19;24.07;;;7.30;;
27305;SDS011;14792;50.886;6.468;2023-04-15T08:10:21;15.93;;;7.53;;
27305;SDS011;14792;50.886;6.468;2023-04-15T08:13:23;19.42;;;8.88;;
27305;SDS011;14792;50.886;6.468;2023-04-15T08:16:25;15.95;;;9.90;;
27305;SDS011;14792;50.886;6.468;2023-04-15T08:19:26;17.02;;;9.33;;
27305;SDS011;14792;50.886;6.468;2023-04-15T08:22:27;21.70;;;9.35;;
27305;SDS011;14792;50.886;6.468;2023-04-15T08:25:29;23.07;;;10.10;;
27305;SDS011;14792;50.886;6.468;2023-04-15T08:28:31;19.70;;;9.53;;
27305;SDS011;14792;50.886;6.468;2023-04-15T08:31:32;15.18;;;9.15;;
27305;SDS011;14792;50.886;6.468;2023-04-15T08:34:34;15.03;;;9.20;;
27305;SDS011;14792;50.886;6.468;2023-04-15T08:37:35;18.73;;;9.03;;
27305;SDS011;14792;50.886;6.468;2023-04-15T08:40:40;19.20;;;9.68;;
27305;SDS011;14792;50.886;6.468;2023-04-15T08:43:45;38.05;;;17.85;;
27305;SDS011;14792;50.886;6.468;2023-04-15T08:46:43;20.92;;;11.88;;
27305;SDS011;14792;50.886;6.468;2023-04-15T08:49:44;23.25;;;10.25;;
27305;SDS011;14792;50.886;6.468;2023-04-15T08:52:46;22.42;;;11.12;;
27305;SDS011;14792;50.886;6.468;2023-04-15T08:55:50;17.30;;;10.30;;
27305;SDS011;14792;50.886;6.468;2023-04-15T08:58:49;18.67;;;8.85;;
27305;SDS011;14792;50.886;6.468;2023-04-15T09:01:51;13.95;;;9.33;;
27305;SDS011;14792;50.886;6.468;2023-04-15T09:04:52;14.95;;;9.78;;
27305;SDS011;14792;50.886;6.468;2023-04-15T09:07:54;17.70;;;9.83;;
27305;SDS011;14792;50.886;6.468;2023-04-15T09:10:56;15.55;;;10.20;;
27305;SDS011;14792;50.886;6.468;2023-04-15T09:13:58;16.62;;;10.18;;
27305;SDS011;14792;50.886;6.468;2023-04-15T09:17:00;13.93;;;9.40;;
27305;SDS011;14792;50.886;6.468;2023-04-15T09:20:07;15.83;;;9.80;;
27305;SDS011;14792;50.886;6.468;2023-04-15T09:23:14;18.35;;;8.98;;
27305;SDS011;14792;50.886;6.468;2023-04-15T09:26:12;11.68;;;7.80;;
27305;SDS011;14792;50.886;6.468;2023-04-15T09:29:14;12.18;;;8.45;;
27305;SDS011;14792;50.886;6.468;2023-04-15T09:32:16;11.08;;;7.92;;
27305;SDS011;14792;50.886;6.468;2023-04-15T09:35:17;9.68;;;6.42;;
27305;SDS011;14792;50.886;6.468;2023-04-15T09:38:19;5.67;;;3.60;;
27305;SDS011;14792;50.886;6.468;2023-04-15T09:41:20;7.65;;;4.12;;
27305;SDS011;14792;50.886;6.468;2023-04-15T09:44:22;7.87;;;4.90;;
27305;SDS011;14792;50.886;6.468;2023-04-15T09:47:27;13.55;;;4.35;;
27305;SDS011;14792;50.886;6.468;2023-04-15T09:50:31;8.60;;;4.50;;
27305;SDS011;14792;50.886;6.468;2023-04-15T09:53:34;9.70;;;4.87;;
27305;SDS011;14792;50.886;6.468;2023-04-15T09:56:35;7.58;;;4.80;;
27305;SDS011;14792;50.886;6.468;2023-04-15T09:59:36;8.05;;;5.20;;
27305;SDS011;14792;50.886;6.468;2023-04-15T10:02:38;7.83;;;4.22;;
27305;SDS011;14792;50.886;6.468;2023-04-15T10:05:39;9.55;;;4.25;;
27305;SDS011;14792;50.886;6.468;2023-04-15T10:08:41;6.53;;;4.15;;
27305;SDS011;14792;50.886;6.468;2023-04-15T10:11:42;8.65;;;5.37;;
27305;SDS011;14792;50.886;6.468;2023-04-15T10:14:44;12.80;;;6.37;;
27305;SDS011;14792;50.886;6.468;2023-04-15T10:17:45;9.18;;;5.83;;
27305;SDS011;14792;50.886;6.468;2023-04-15T10:20:47;8.80;;;5.90;;
27305;SDS011;14792;50.886;6.468;2023-04-15T10:23:49;10.60;;;5.67;;
27305;SDS011;14792;50.886;6.468;2023-04-15T10:26:51;11.65;;;5.60;;
27305;SDS011;14792;50.886;6.468;2023-04-15T10:29:52;9.63;;;5.53;;
27305;SDS011;14792;50.886;6.468;2023-04-15T10:32:53;8.70;;;4.83;;
27305;SDS011;14792;50.886;6.468;2023-04-15T10:35:55;8.25;;;4.50;;
27305;SDS011;14792;50.886;6.468;2023-04-15T10:38:56;10.23;;;4.45;;
27305;SDS011;14792;50.886;6.468;2023-04-15T10:42:08;9.73;;;4.12;;
27305;SDS011;14792;50.886;6.468;2023-04-15T10:45:18;6.35;;;3.75;;
27305;SDS011;14792;50.886;6.468;2023-04-15T10:48:19;5.10;;;3.45;;
27305;SDS011;14792;50.886;6.468;2023-04-15T10:51:28;6.95;;;3.22;;
27305;SDS011;14792;50.886;6.468;2023-04-15T10:57:33;3.05;;;2.15;;
27305;SDS011;14792;50.886;6.468;2023-04-15T11:00:35;5.90;;;2.30;;
27305;SDS011;14792;50.886;6.468;2023-04-15T11:03:37;7.95;;;2.42;;
27305;SDS011;14792;50.886;6.468;2023-04-15T11:06:43;4.25;;;3.10;;
27305;SDS011;14792;50.886;6.468;2023-04-15T11:09:45;3.75;;;2.70;;
27305;SDS011;14792;50.886;6.468;2023-04-15T11:12:47;5.60;;;2.58;;
27305;SDS011;14792;50.886;6.468;2023-04-15T11:15:48;4.70;;;3.08;;
27305;SDS011;14792;50.886;6.468;2023-04-15T11:18:53;4.85;;;3.05;;
27305;SDS011;14792;50.886;6.468;2023-04-15T11:21:54;7.30;;;2.85;;
27305;SDS011;14792;50.886;6.468;2023-04-15T11:24:56;6.17;;;2.83;;
27305;SDS011;14792;50.886;6.468;2023-04-15T11:27:57;5.40;;;3.08;;
27305;SDS011;14792;50.886;6.468;2023-04-15T11:31:04;6.00;;;3.30;;
27305;SDS011;14792;50.886;6.468;2023-04-15T11:34:12;11.33;;;3.20;;
27305;SDS011;14792;50.886;6.468;2023-04-15T11:37:14;8.23;;;3.40;;
27305;SDS011;14792;50.886;6.468;2023-04-15T11:40:21;8.00;;;3.02;;
27305;SDS011;14792;50.886;6.468;2023-04-15T11:43:20;6.50;;;2.40;;
27305;SDS011;14792;50.886;6.468;2023-04-15T11:46:27;2.83;;;1.87;;
27305;SDS011;14792;50.886;6.468;2023-04-15T11:49:26;6.00;;;2.77;;
27305;SDS011;14792;50.886;6.468;2023-04-15T11:52:27;5.72;;;2.83;;
27305;SDS011;14792;50.886;6.468;2023-04-15T11:58:30;5.08;;;3.80;;
27305;SDS011;14792;50.886;6.468;2023-04-15T12:01:32;6.65;;;3.47;;
27305;SDS011;14792;50.886;6.468;2023-04-15T12:04:34;6.72;;;3.72;;
27305;SDS011;14792;50.886;6.468;2023-04-15T12:10:58;5.12;;;4.12;;
27305;SDS011;14792;50.886;6.468;2023-04-15T12:17:05;5.42;;;3.70;;
27305;SDS011;14792;50.886;6.468;2023-04-15T12:20:05;7.53;;;3.87;;
27305;SDS011;14792;50.886;6.468;2023-04-15T12:23:07;6.58;;;3.65;;
27305;SDS011;14792;50.886;6.468;2023-04-15T12:26:09;13.65;;;9.70;;
27305;SDS011;14792;50.886;6.468;2023-04-15T12:29:11;6.15;;;4.00;;
27305;SDS011;14792;50.886;6.468;2023-04-15T12:32:13;5.20;;;4.25;;
27305;SDS011;14792;50.886;6.468;2023-04-15T12:35:13;5.00;;;3.70;;
27305;SDS011;14792;50.886;6.468;2023-04-15T12:38:15;5.67;;;3.67;;
27305;SDS011;14792;50.886;6.468;2023-04-15T12:41:17;5.35;;;3.75;;
27305;SDS011;14792;50.886;6.468;2023-04-15T12:44:19;7.58;;;4.30;;
27305;SDS011;14792;50.886;6.468;2023-04-15T12:47:20;6.60;;;4.40;;
27305;SDS011;14792;50.886;6.468;2023-04-15T12:50:21;6.05;;;4.12;;
27305;SDS011;14792;50.886;6.468;2023-04-15T12:53:23;7.78;;;4.42;;
27305;SDS011;14792;50.886;6.468;2023-04-15T12:56:25;5.12;;;4.33;;
27305;SDS011;14792;50.886;6.468;2023-04-15T12:59:26;4.85;;;3.75;;
27305;SDS011;14792;50.886;6.468;2023-04-15T13:02:28;5.35;;;4.30;;
27305;SDS011;14792;50.886;6.468;2023-04-15T13:05:29;7.22;;;4.10;;
27305;SDS011;14792;50.886;6.468;2023-04-15T13:08:31;4.87;;;3.87;;
27305;SDS011;14792;50.886;6.468;2023-04-15T13:11:33;5.47;;;3.50;;
27305;SDS011;14792;50.886;6.468;2023-04-15T13:14:34;4.58;;;3.30;;
27305;SDS011;14792;50.886;6.468;2023-04-15T13:17:36;8.70;;;3.72;;
27305;SDS011;14792;50.886;6.468;2023-04-15T13:20:37;5.42;;;3.40;;
27305;SDS011;14792;50.886;6.468;2023-04-15T13:23:42;6.95;;;3.17;;
27305;SDS011;14792;50.886;6.468;2023-04-15T13:26:44;3.80;;;3.00;;
27305;SDS011;14792;50.886;6.468;2023-04-15T13:29:45;8.50;;;3.27;;
27305;SDS011;14792;50.886;6.468;2023-04-15T13:32:47;7.70;;;3.02;;
27305;SDS011;14792;50.886;6.468;2023-04-15T13:35:48;5.20;;;3.05;;
27305;SDS011;14792;50.886;6.468;2023-04-15T13:38:50;6.80;;;3.12;;
27305;SDS011;14792;50.886;6.468;2023-04-15T13:41:52;6.97;;;3.12;;
27305;SDS011;14792;50.886;6.468;2023-04-15T13:44:53;8.30;;;3.10;;
27305;SDS011;14792;50.886;6.468;2023-04-15T13:47:55;5.45;;;2.70;;
27305;SDS011;14792;50.886;6.468;2023-04-15T13:50:56;5.58;;;2.87;;
27305;SDS011;14792;50.886;6.468;2023-04-15T13:53:58;7.33;;;2.62;;
27305;SDS011;14792;50.886;6.468;2023-04-15T13:57:00;6.03;;;2.62;;
27305;SDS011;14792;50.886;6.468;2023-04-15T14:00:02;6.40;;;3.20;;
27305;SDS011;14792;50.886;6.468;2023-04-15T14:03:03;6.12;;;3.12;;
27305;SDS011;14792;50.886;6.468;2023-04-15T14:06:04;6.97;;;3.62;;
27305;SDS011;14792;50.886;6.468;2023-04-15T14:09:06;11.33;;;4.40;;
27305;SDS011;14792;50.886;6.468;2023-04-15T14:12:07;7.95;;;3.83;;
27305;SDS011;14792;50.886;6.468;2023-04-15T14:15:09;5.70;;;3.72;;
27305;SDS011;14792;50.886;6.468;2023-04-15T14:18:11;5.90;;;3.65;;
27305;SDS011;14792;50.886;6.468;2023-04-15T14:21:12;4.33;;;3.17;;
27305;SDS011;14792;50.886;6.468;2023-04-15T14:24:14;5.55;;;4.15;;
27305;SDS011;14792;50.886;6.468;2023-04-15T14:27:16;6.83;;;4.30;;
27305;SDS011;14792;50.886;6.468;2023-04-15T14:30:17;6.35;;;3.60;;
27305;SDS011;14792;50.886;6.468;2023-04-15T14:33:19;5.75;;;2.72;;
27305;SDS011;14792;50.886;6.468;2023-04-15T14:36:20;5.05;;;3.27;;
27305;SDS011;14792;50.886;6.468;2023-04-15T14:39:22;4.20;;;2.80;;
27305;SDS011;14792;50.886;6.468;2023-04-15T14:42:24;4.58;;;2.98;;
27305;SDS011;14792;50.886;6.468;2023-04-15T14:45:25;4.22;;;2.80;;
27305;SDS011;14792;50.886;6.468;2023-04-15T14:48:27;6.53;;;3.08;;
27305;SDS011;14792;50.886;6.468;2023-04-15T14:51:28;5.92;;;3.20;;
27305;SDS011;14792;50.886;6.468;2023-04-15T14:54:30;7.08;;;4.33;;
27305;SDS011;14792;50.886;6.468;2023-04-15T14:57:32;5.42;;;3.77;;
27305;SDS011;14792;50.886;6.468;2023-04-15T15:00:33;5.95;;;3.52;;
27305;SDS011;14792;50.886;6.468;2023-04-15T15:03:35;5.83;;;3.10;;
27305;SDS011;14792;50.886;6.468;2023-04-15T15:06:37;5.30;;;2.90;;
27305;SDS011;14792;50.886;6.468;2023-04-15T15:09:38;6.12;;;3.83;;
27305;SDS011;14792;50.886;6.468;2023-04-15T15:12:40;5.85;;;3.72;;
27305;SDS011;14792;50.886;6.468;2023-04-15T15:15:41;4.47;;;2.85;;
27305;SDS011;14792;50.886;6.468;2023-04-15T15:18:43;5.75;;;2.92;;
27305;SDS011;14792;50.886;6.468;2023-04-15T15:21:45;7.30;;;4.95;;
27305;SDS011;14792;50.886;6.468;2023-04-15T15:24:46;13.75;;;10.50;;
27305;SDS011;14792;50.886;6.468;2023-04-15T15:27:48;11.00;;;6.17;;
27305;SDS011;14792;50.886;6.468;2023-04-15T15:30:49;6.10;;;4.50;;
27305;SDS011;14792;50.886;6.468;2023-04-15T15:33:51;4.72;;;3.30;;
27305;SDS011;14792;50.886;6.468;2023-04-15T15:36:53;4.97;;;2.75;;
27305;SDS011;14792;50.886;6.468;2023-04-15T15:39:54;3.47;;;2.30;;
27305;SDS011;14792;50.886;6.468;2023-04-15T15:42:56;3.37;;;2.45;;
27305;SDS011;14792;50.886;6.468;2023-04-15T15:45:57;3.62;;;2.50;;
27305;SDS011;14792;50.886;6.468;2023-04-15T15:49:01;5.55;;;2.33;;
27305;SDS011;14792;50.886;6.468;2023-04-15T15:52:01;4.08;;;2.20;;
27305;SDS011;14792;50.886;6.468;2023-04-15T15:55:02;3.77;;;1.90;;
27305;SDS011;14792;50.886;6.468;2023-04-15T15:58:04;4.83;;;1.87;;
27305;SDS011;14792;50.886;6.468;2023-04-15T16:01:05;3.08;;;1.90;;
27305;SDS011;14792;50.886;6.468;2023-04-15T16:04:07;2.35;;;1.70;;
27305;SDS011;14792;50.886;6.468;2023-04-15T16:07:09;5.55;;;2.00;;
27305;SDS011;14792;50.886;6.468;2023-04-15T16:10:10;5.05;;;1.80;;
27305;SDS011;14792;50.886;6.468;2023-04-15T16:13:12;4.00;;;2.20;;
27305;SDS011;14792;50.886;6.468;2023-04-15T16:16:13;3.35;;;2.20;;
27305;SDS011;14792;50.886;6.468;2023-04-15T16:19:15;3.75;;;1.72;;
27305;SDS011;14792;50.886;6.468;2023-04-15T16:22:16;3.80;;;2.60;;
27305;SDS011;14792;50.886;6.468;2023-04-15T16:25:18;8.20;;;2.17;;
27305;SDS011;14792;50.886;6.468;2023-04-15T16:28:21;3.98;;;1.80;;
27305;SDS011;14792;50.886;6.468;2023-04-15T16:31:23;4.37;;;2.05;;
27305;SDS011;14792;50.886;6.468;2023-04-15T16:34:24;7.08;;;2.33;;
27305;SDS011;14792;50.886;6.468;2023-04-15T16:37:26;2.90;;;1.82;;
27305;SDS011;14792;50.886;6.468;2023-04-15T16:40:27;3.45;;;1.75;;
27305;SDS011;14792;50.886;6.468;2023-04-15T16:43:29;3.40;;;1.75;;
27305;SDS011;14792;50.886;6.468;2023-04-15T16:46:31;5.85;;;1.80;;
27305;SDS011;14792;50.886;6.468;2023-04-15T16:49:32;4.62;;;2.22;;
27305;SDS011;14792;50.886;6.468;2023-04-15T16:52:34;5.75;;;1.95;;
27305;SDS011;14792;50.886;6.468;2023-04-15T16:55:35;4.42;;;2.87;;
27305;SDS011;14792;50.886;6.468;2023-04-15T16:58:37;4.90;;;1.92;;
27305;SDS011;14792;50.886;6.468;2023-04-15T17:01:39;6.00;;;1.92;;
27305;SDS011;14792;50.886;6.468;2023-04-15T17:04:40;4.90;;;2.10;;
27305;SDS011;14792;50.886;6.468;2023-04-15T17:07:42;4.85;;;2.65;;
27305;SDS011;14792;50.886;6.468;2023-04-15T17:10:43;5.53;;;1.87;;
27305;SDS011;14792;50.886;6.468;2023-04-15T17:13:45;3.33;;;2.02;;
27305;SDS011;14792;50.886;6.468;2023-04-15T17:16:46;7.00;;;2.15;;
27305;SDS011;14792;50.886;6.468;2023-04-15T17:19:48;6.28;;;2.42;;
27305;SDS011;14792;50.886;6.468;2023-04-15T17:22:50;5.20;;;1.77;;
27305;SDS011;14792;50.886;6.468;2023-04-15T17:25:52;4.28;;;1.82;;
27305;SDS011;14792;50.886;6.468;2023-04-15T17:28:53;6.17;;;2.10;;
27305;SDS011;14792;50.886;6.468;2023-04-15T17:31:54;4.45;;;2.08;;
27305;SDS011;14792;50.886;6.468;2023-04-15T17:34:57;3.70;;;1.95;;
27305;SDS011;14792;50.886;6.468;2023-04-15T17:37:58;6.42;;;2.30;;
27305;SDS011;14792;50.886;6.468;2023-04-15T17:41:00;3.60;;;1.65;;
27305;SDS011;14792;50.886;6.468;2023-04-15T17:44:02;7.85;;;1.60;;
27305;SDS011;14792;50.886;6.468;2023-04-15T17:47:03;4.30;;;2.02;;
27305;SDS011;14792;50.886;6.468;2023-04-15T17:50:05;4.40;;;1.60;;
27305;SDS011;14792;50.886;6.468;2023-04-15T17:53:07;5.67;;;1.90;;
27305;SDS011;14792;50.886;6.468;2023-04-15T17:56:08;4.67;;;1.77;;
27305;SDS011;14792;50.886;6.468;2023-04-15T17:59:10;3.00;;;1.75;;
27305;SDS011;14792;50.886;6.468;2023-04-15T18:02:11;3.10;;;1.62;;
27305;SDS011;14792;50.886;6.468;2023-04-15T18:05:13;3.17;;;1.92;;
27305;SDS011;14792;50.886;6.468;2023-04-15T18:08:14;2.60;;;1.90;;
27305;SDS011;14792;50.886;6.468;2023-04-15T18:11:16;3.12;;;2.17;;
27305;SDS011;14792;50.886;6.468;2023-04-15T18:14:18;3.58;;;1.80;;
27305;SDS011;14792;50.886;6.468;2023-04-15T18:17:19;6.55;;;4.22;;
27305;SDS011;14792;50.886;6.468;2023-04-15T18:20:21;3.70;;;2.12;;
27305;SDS011;14792;50.886;6.468;2023-04-15T18:23:22;5.17;;;2.10;;
27305;SDS011;14792;50.886;6.468;2023-04-15T18:26:24;5.62;;;2.33;;
27305;SDS011;14792;50.886;6.468;2023-04-15T18:29:26;5.40;;;2.40;;
27305;SDS011;14792;50.886;6.468;2023-04-15T18:32:27;2.87;;;2.37;;
27305;SDS011;14792;50.886;6.468;2023-04-15T18:35:29;4.28;;;1.95;;